METAR K6A3 192355Z AUTO 00000KT 02/01 A3011 RMK AO2 
METAR K6A3 192335Z AUTO 00000KT 02/01 A3011 RMK AO2 
METAR K6A3 192315Z AUTO 00000KT 02/01 A3010 RMK AO2 
METAR K6A3 192255Z AUTO 00000KT OVC007 02/01 A3009 RMK AO2 
METAR K6A3 192235Z AUTO 00000KT 10SM OVC007 02/01 A3009 RMK AO2 
METAR K6A3 192215Z AUTO 27003KT 10SM OVC007 02/01 A3009 RMK AO2 
METAR K6A3 192155Z AUTO 27004KT 10SM OVC007 02/01 A3008 RMK AO2 
METAR K6A3 192135Z AUTO 27004KT 10SM OVC007 02/00 A3008 RMK AO2 
METAR K6A3 192115Z AUTO 27003KT OVC007 02/00 A3008 RMK AO2 
METAR K6A3 192055Z AUTO 27004KT OVC007 02/01 A3008 RMK AO2 P0001 
METAR K6A3 192035Z AUTO 27003KT 02/01 A3007 RMK AO2 P0001 
METAR K6A3 192015Z AUTO 26003KT 10SM OVC006 02/01 A3007 RMK AO2 P0001 
METAR K6A3 191955Z AUTO 27003KT 10SM BKN004 BKN008 OVC038 02/01 A3007 RMK AO2 P0012 
METAR K6A3 191935Z AUTO 00000KT 7SM SCT008 OVC038 01/01 A3007 RMK AO2 P0011 
METAR K6A3 191915Z AUTO 00000KT 4SM BR SCT001 BKN036 OVC043 00/00 A3008 RMK AO2 P0008 
METAR K6A3 191855Z AUTO 00000KT 2SM -RA BKN001 OVC010 01/00 A3008 RMK AO2 P0009 
METAR K6A3 191455Z AUTO 00000KT 2SM +RA OVC008 00/00 A3017 RMK AO2 P0002 
METAR K6A3 191435Z AUTO 00000KT 2 1/2SM +RA OVC006 00/00 A3018 RMK AO2 P0002 
METAR K6A3 191415Z AUTO 00000KT 1 3/4SM UP OVC006 00/00 A3014 RMK AO2 P0000 
METAR K6A3 191355Z AUTO 00000KT 2 1/2SM +RA OVC008 00/00 A3014 RMK AO2 P0002 
METAR K6A3 191335Z AUTO 00000KT 5SM +RA BKN008 OVC017 00/00 A3015 RMK AO2 P0000 
METAR K6A3 191315Z AUTO 00000KT BKN016 OVC025 01/00 A3015 RMK AO2 
METAR K6A3 191255Z AUTO 00000KT 01/00 A3014 RMK AO2 
METAR K6A3 191235Z AUTO 00000KT 01/00 A3013 RMK AO2 
METAR K6A3 191215Z AUTO 27004KT BKN044 OVC050 01/00 A3011 RMK AO2 
METAR K6A3 191155Z AUTO 00000KT BKN044 OVC050 01/00 A3009 RMK AO2 
METAR K6A3 191135Z AUTO 00000KT 10SM OVC046 01/00 A3008 RMK AO2 
METAR K6A3 191115Z AUTO 26003KT 10SM OVC046 01/00 A3010 RMK AO2 
METAR K6A3 191055Z AUTO 00000KT 10SM OVC048 01/00 A3009 RMK AO2 
METAR K6A3 191035Z AUTO 00000KT 10SM OVC048 01/00 A3008 RMK AO2 
METAR K6A3 191015Z AUTO 00000KT 10SM OVC050 00/00 A3010 RMK AO2 
METAR K6A3 190955Z AUTO 08004KT 10SM OVC050 00/00 A3011 RMK AO2 
METAR K6A3 190935Z AUTO 00000KT 10SM OVC055 00/00 A3013 RMK AO2 
METAR K6A3 190915Z AUTO 00000KT 3SM -RA OVC055 00/00 A3014 RMK AO2 P0000 
METAR K6A3 190855Z AUTO 00000KT 10SM BKN055 OVC070 00/00 A3011 RMK AO2 
METAR K6A3 190835Z AUTO 18003KT 5SM -RA OVC070 00/00 A3014 RMK AO2 P0000 
METAR K6A3 190815Z AUTO 00000KT 10SM -DZ OVC070 00/00 A3016 RMK AO2 P0000 
METAR K6A3 190755Z AUTO 00000KT 5SM -RA SCT015 SCT027 BKN080 00/00 A3016 RMK AO2 P0001 
METAR K6A3 190735Z AUTO 00000KT 5SM RA SCT009 BKN015 OVC027 00/00 A3018 RMK AO2 P0001 
METAR K6A3 190715Z AUTO 00000KT 4SM +RA BKN009 OVC016 00/M01 A3019 RMK AO2 P0000 
METAR K6A3 190655Z AUTO 00000KT 10SM -RA SCT016 BKN022 OVC040 02/00 A3018 RMK AO2 P0000 
METAR K6A3 190635Z AUTO 00000KT 10SM -RA SCT025 OVC040 02/00 A3018 RMK AO2 P0000 
METAR K6A3 190615Z AUTO 00000KT BKN040 OVC050 02/00 A3017 RMK AO2 
METAR K6A3 190555Z AUTO 00000KT 02/00 A3015 RMK AO2 PWINO 
METAR K6A3 190535Z AUTO 00000KT 02/00 A3013 RMK AO2 
METAR K6A3 190515Z AUTO 00000KT 02/00 A3015 RMK AO2 
METAR K6A3 190455Z AUTO 00000KT 10SM SCT050 BKN055 OVC090 02/00 A3016 RMK AO2 
METAR K6A3 190435Z AUTO 00000KT 10SM SCT070 SCT095 BKN110 02/00 A3018 RMK AO2 
METAR K6A3 190415Z AUTO 00000KT 10SM SCT110 02/00 A3014 RMK AO2 
METAR K6A3 190355Z AUTO 00000KT 10SM CLR 02/00 A3013 RMK AO2 
METAR K6A3 190335Z AUTO 00000KT 10SM SCT120 02/00 A3014 RMK AO2 
METAR K6A3 190315Z AUTO 20003KT 10SM SCT120 02/00 A3015 RMK AO2 
METAR K6A3 190255Z AUTO 34004KT 10SM CLR 02/00 A3014 RMK AO2 
METAR K6A3 190235Z AUTO 36004KT 10SM SCT110 02/00 A3013 RMK AO2 
METAR K6A3 190215Z AUTO 00000KT 10SM BKN110 02/00 A3016 RMK AO2 
METAR K6A3 190155Z AUTO 00000KT 10SM BKN110 02/00 A3016 RMK AO2 
METAR K6A3 190135Z AUTO 00000KT 10SM SCT120 02/00 A3017 RMK AO2 
METAR K6A3 190115Z AUTO 00000KT 10SM SCT120 02/00 A3018 RMK AO2 
METAR K6A3 190055Z AUTO 00000KT 10SM CLR 02/00 A3018 RMK AO2 
METAR K6A3 190035Z AUTO 08003KT 10SM CLR 02/00 A3015 RMK AO2 
METAR K6A3 190015Z AUTO 00000KT 10SM SCT090 02/00 A3019 RMK AO2 
METAR K6A3 182355Z AUTO 00000KT 10SM SCT090 02/M01 A3022 RMK AO2 
METAR K6A3 182335Z AUTO 00000KT 10SM CLR 02/00 A3020 RMK AO2 
METAR K6A3 182315Z AUTO 00000KT 10SM SCT075 SCT110 02/M01 A3017 RMK AO2 
METAR K6A3 182255Z AUTO 00000KT 10SM SCT060 OVC075 02/M01 A3014 RMK AO2 
METAR K6A3 182235Z AUTO 00000KT 10SM OVC060 03/M01 A3017 RMK AO2 
METAR K6A3 182215Z AUTO 00000KT 10SM OVC070 03/M01 A3017 RMK AO2 
METAR K6A3 182155Z AUTO 27003KT 10SM OVC070 03/M02 A3017 RMK AO2 
METAR K6A3 182135Z AUTO 00000KT 10SM SCT080 03/M02 A3013 RMK AO2 
METAR K6A3 182115Z AUTO 00000KT 10SM CLR 03/M03 A3013 RMK AO2 
METAR K6A3 182055Z AUTO 00000KT 10SM CLR 03/M03 A3011 RMK AO2 
METAR K6A3 182035Z AUTO 00000KT 10SM CLR 03/M04 A3013 RMK AO2 
METAR K6A3 182015Z AUTO 00000KT 10SM CLR 03/M04 A3014 RMK AO2 
METAR K6A3 181955Z AUTO 00000KT 10SM CLR 03/M05 A3015 RMK AO2 
METAR K6A3 181935Z AUTO 00000KT 10SM CLR 03/M03 A3016 RMK AO2 
METAR K6A3 181915Z AUTO 00000KT 10SM CLR 03/M03 A3017 RMK AO2 
METAR K6A3 181855Z AUTO 00000KT 10SM CLR 02/M04 A3018 RMK AO2 
METAR K6A3 181835Z AUTO 00000KT CLR 02/M03 A3018 RMK AO2 
METAR K6A3 181815Z AUTO 00000KT 10SM CLR 02/M03 A3020 RMK AO2 
METAR K6A3 181755Z AUTO 00000KT 10SM CLR 02/M03 A3021 RMK AO2 
METAR K6A3 181735Z AUTO 00000KT 10SM CLR 02/M02 A3022 RMK AO2 
METAR K6A3 181715Z AUTO 00000KT 10SM CLR 01/M02 A3022 RMK AO2 
METAR K6A3 181655Z AUTO 00000KT 10SM CLR 00/M04 A3023 RMK AO2 
METAR K6A3 181635Z AUTO 00000KT 10SM CLR 00/M03 A3024 RMK AO2 
METAR K6A3 181615Z AUTO 00000KT 10SM CLR 00/M03 A3025 RMK AO2 
METAR K6A3 181555Z AUTO 00000KT 10SM CLR 00/M02 A3024 RMK AO2 
METAR K6A3 181535Z AUTO 00000KT 10SM CLR 00/M02 A3025 RMK AO2 
METAR K6A3 181515Z AUTO 00000KT 7SM CLR 00/M03 A3025 RMK AO2 
METAR K6A3 181455Z AUTO 00000KT 10SM CLR M01/M03 A3025 RMK AO2 
METAR K6A3 181435Z AUTO 00000KT 7SM CLR M01/M03 A3024 RMK AO2 
METAR K6A3 181415Z AUTO 00000KT 10SM CLR M02/M03 A3023 RMK AO2 
METAR K6A3 181355Z AUTO 00000KT 10SM CLR M02/M03 A3023 RMK AO2 
METAR K6A3 181335Z AUTO 00000KT 10SM CLR M02/M03 A3025 RMK AO2 
METAR K6A3 181315Z AUTO 00000KT 7SM CLR M02/M03 A3025 RMK AO2 
METAR K6A3 181255Z AUTO 00000KT 7SM CLR M02/M03 A3025 RMK AO2 
METAR K6A3 181235Z AUTO 00000KT 7SM CLR M02/M03 A3024 RMK AO2 
METAR K6A3 181215Z AUTO 00000KT 7SM CLR M02/M03 A3023 RMK AO2 
METAR K6A3 181215Z AUTO 00000KT 7SM CLR M02/M03 A3023 RMK AO2